Time;durP1;ratioP1;P1;durP2;ratioP2;P2;SDS_P1;SDS_P2;PMS_P1;PMS_P2;Temp;Humidity;BMP_temperature;BMP_pressure;BME280_temperature;BME280_humidity;BME280_pressure;Samples;Min_cycle;Max_cycle;Signal;HPM_P1;HPM_P2
2022/08/29 00:00:33;;;;;;;;;;;;;;;28.98;38.70;94371.34;5006541;28;7245;-60
2022/08/29 00:03:00;;;;;;;;;;;;;;;28.96;38.68;94360.03;4974254;28;7096;-60
2022/08/29 00:05:32;;;;;;;;;;;;;;;28.97;38.76;94362.28;5001759;28;9463;-60
2022/08/29 00:08:09;;;;;;;;;;;;;;;28.96;39.06;94366.34;4997427;28;7085;-60
2022/08/29 00:10:46;;;;;;;;;;;;;;;28.95;38.45;94367.59;4993449;28;9298;-60
2022/08/29 00:13:29;;;;;;;;;;;;;;;28.94;39.25;94363.34;4995234;28;9420;-60
2022/08/29 00:16:02;;;;;;;;;;;;;;;28.93;39.18;94364.63;4991672;28;7175;-60
2022/08/29 00:18:31;;;;;;;;;;;;;;;28.91;38.83;94349.81;5002128;28;7117;-60
2022/08/29 00:21:05;;;;;;;;;;;;;;;28.89;39.31;94346.84;5011912;28;7303;-60
2022/08/29 00:23:40;;;;;;;;;;;;;;;28.89;38.87;94353.13;4990310;28;7554;-60
2022/08/29 00:26:10;;;;;;;;;;;;;;;28.87;38.73;94344.63;4992695;28;7291;-60
2022/08/29 00:28:38;;;;;;;;;;;;;;;28.89;38.58;94353.13;5011097;28;7384;-60
2022/08/29 00:31:10;;;;;;;;;;;;;;;28.86;38.36;94340.34;4989990;28;8969;-60
2022/08/29 00:33:39;;;;;;;;;;;;;;;28.86;38.57;94354.19;5010644;28;7029;-60
2022/08/29 00:36:08;;;;;;;;;;;;;;;28.86;38.35;94354.19;5002471;28;7496;-60
2022/08/29 00:38:35;;;;;;;;;;;;;;;28.85;38.46;94357.50;4993739;28;7231;-60
2022/08/29 00:41:01;;;;;;;;;;;;;;;28.86;38.63;94361.75;5006842;28;7257;-60
2022/08/29 00:43:32;;;;;;;;;;;;;;;28.85;38.29;94369.31;5010452;28;8377;-60
2022/08/29 00:46:12;;;;;;;;;;;;;;;28.85;38.61;94363.03;5005525;28;7306;-60
2022/08/29 00:48:40;;;;;;;;;;;;;;;28.85;38.16;94366.56;4987200;28;7059;-60
2022/08/29 00:51:15;;;;;;;;;;;;;;;28.81;38.12;94360.59;4986638;28;7183;-60
2022/08/29 00:53:45;;;;;;;;;;;;;;;28.82;38.37;94364.09;4997065;28;9191;-60
2022/08/29 00:56:16;;;;;;;;;;;;;;;28.81;38.58;94368.91;4991401;28;7009;-61
2022/08/29 00:58:52;;;;;;;;;;;;;;;28.81;38.49;94365.38;4986898;28;7391;-60
2022/08/29 01:01:27;;;;;;;;;;;;;;;28.79;38.04;94363.16;4986994;28;7437;-60
2022/08/29 01:03:59;;;;;;;;;;;;;;;28.79;38.77;94365.16;4992743;28;7225;-60
2022/08/29 01:06:34;;;;;;;;;;;;;;;28.78;38.69;94369.19;5007180;28;7318;-60
2022/08/29 01:09:04;;;;;;;;;;;;;;;28.77;38.30;94371.25;4980214;28;8666;-60
2022/08/29 01:14:29;;;;;;;;;;;;;;;28.73;38.14;94365.25;4996348;28;7220;-60
2022/08/29 01:16:59;;;;;;;;;;;;;;;28.73;38.58;94365.25;4983542;28;7729;-60
2022/08/29 01:19:40;;;;;;;;;;;;;;;28.73;38.28;94383.91;4993288;28;7284;-60
2022/08/29 01:22:21;;;;;;;;;;;;;;;28.72;38.29;94376.88;4987630;28;7436;-60
2022/08/29 01:24:54;;;;;;;;;;;;;;;28.70;38.78;94380.19;4993404;28;7263;-60
2022/08/29 01:28:05;;;;;;;;;;;;;;;28.70;38.69;94379.44;4994682;28;7884;-60
2022/08/29 01:30:33;;;;;;;;;;;;;;;28.68;38.75;94368.16;4954128;28;7111;-60
2022/08/29 01:33:18;;;;;;;;;;;;;;;28.68;38.82;94373.69;4953608;28;7494;-60
2022/08/29 01:35:53;;;;;;;;;;;;;;;28.66;38.28;94374.22;4953735;28;7420;-60
2022/08/29 01:38:43;;;;;;;;;;;;;;;28.66;38.79;94365.91;4953433;28;8513;-60
2022/08/29 01:41:21;;;;;;;;;;;;;;;28.64;38.55;94368.47;4956241;28;7227;-60
2022/08/29 01:44:11;;;;;;;;;;;;;;;28.63;38.27;94372.50;4954312;28;9853;-60
2022/08/29 01:46:42;;;;;;;;;;;;;;;28.62;38.36;94368.25;4941070;28;7318;-60
2022/08/29 01:49:12;;;;;;;;;;;;;;;28.62;38.41;94370.28;4935998;28;7086;-60
2022/08/29 01:51:39;;;;;;;;;;;;;;;28.59;38.59;94363.03;4938427;28;9487;-60
2022/08/29 01:54:07;;;;;;;;;;;;;;;28.60;38.46;94368.03;4953083;28;7617;-61
2022/08/29 01:56:36;;;;;;;;;;;;;;;28.59;37.69;94369.31;4954231;28;7219;-60
2022/08/29 01:59:32;;;;;;;;;;;;;;;28.59;37.89;94369.31;4954065;28;6991;-60
2022/08/29 02:02:22;;;;;;;;;;;;;;;28.58;38.00;94367.81;4931090;29;6933;-60
2022/08/29 02:04:50;;;;;;;;;;;;;;;28.58;38.19;94362.28;4930210;29;8546;-60
2022/08/29 02:07:23;;;;;;;;;;;;;;;28.55;38.33;94360.56;4910692;29;9673;-60
2022/08/29 02:10:18;;;;;;;;;;;;;;;28.58;37.87;94372.63;4931406;29;7072;-60
2022/08/29 02:12:53;;;;;;;;;;;;;;;28.56;37.94;94364.09;4949114;28;7198;-60
2022/08/29 02:15:48;;;;;;;;;;;;;;;28.54;37.88;94361.81;4964948;28;7151;-60
2022/08/29 02:18:17;;;;;;;;;;;;;;;28.54;37.99;94361.06;4910566;29;9350;-60
2022/08/29 02:20:46;;;;;;;;;;;;;;;28.53;37.93;94359.59;4895604;29;7812;-61
2022/08/29 02:23:13;;;;;;;;;;;;;;;28.52;37.73;94369.91;4891960;29;7186;-60
2022/08/29 02:25:51;;;;;;;;;;;;;;;28.51;38.12;94365.66;4888145;29;7291;-60
2022/08/29 02:28:28;;;;;;;;;;;;;;;28.50;37.79;94364.16;4894889;29;7277;-60
2022/08/29 02:31:07;;;;;;;;;;;;;;;28.50;37.99;94361.41;4897082;29;7105;-60
2022/08/29 02:33:45;;;;;;;;;;;;;;;28.51;38.02;94378.75;4895499;29;9268;-60
2022/08/29 02:36:20;;;;;;;;;;;;;;;28.50;37.97;94380.03;4894207;29;9548;-60
2022/08/29 02:38:48;;;;;;;;;;;;;;;28.48;37.79;94377.03;4891781;29;7186;-60
2022/08/29 02:41:23;;;;;;;;;;;;;;;28.49;38.12;94370.25;4895398;29;7173;-60
2022/08/29 02:43:51;;;;;;;;;;;;;;;28.47;37.89;94370.75;4881999;29;7047;-60
2022/08/29 02:46:46;;;;;;;;;;;;;;;28.47;38.13;94367.25;4910948;29;7179;-60
2022/08/29 02:49:12;;;;;;;;;;;;;;;28.45;38.05;94367.03;4849075;29;7012;-60
2022/08/29 02:51:38;;;;;;;;;;;;;;;28.45;38.09;94365.00;4853403;29;9190;-60
2022/08/29 02:54:04;;;;;;;;;;;;;;;28.42;37.56;94359.78;4877020;28;7216;-60
2022/08/29 02:56:33;;;;;;;;;;;;;;;28.41;37.73;94361.81;4947691;28;9107;-60
2022/08/29 02:59:03;;;;;;;;;;;;;;;28.41;37.96;94355.53;4939548;28;10359;-60
2022/08/29 03:01:37;;;;;;;;;;;;;;;28.41;37.65;94369.34;4935063;28;7198;-61
2022/08/29 03:04:04;;;;;;;;;;;;;;;28.40;38.01;94374.16;4931775;29;7247;-60
2022/08/29 03:06:32;;;;;;;;;;;;;;;28.38;37.40;94371.91;4929592;28;7438;-60
2022/08/29 03:09:01;;;;;;;;;;;;;;;28.38;37.54;94374.69;4934750;28;7247;-60
2022/08/29 03:11:28;;;;;;;;;;;;;;;28.38;38.27;94371.19;4936682;28;7246;-60
2022/08/29 03:13:54;;;;;;;;;;;;;;;28.37;38.08;94364.16;4934727;28;7333;-60
2022/08/29 03:16:37;;;;;;;;;;;;;;;28.37;37.58;94369.69;4931807;28;7583;-60
2022/08/29 03:19:13;;;;;;;;;;;;;;;28.37;37.80;94364.16;4928411;28;7267;-60
2022/08/29 03:22:11;;;;;;;;;;;;;;;28.36;37.80;94362.69;4939336;28;7118;-60
2022/08/29 03:24:49;;;;;;;;;;;;;;;28.34;37.64;94360.41;4937209;28;7659;-60
2022/08/29 03:27:17;;;;;;;;;;;;;;;28.35;37.27;94367.47;4970915;28;7092;-60
2022/08/29 03:29:48;;;;;;;;;;;;;;;28.34;37.87;94354.13;5002979;28;7214;-61
2022/08/29 03:32:14;;;;;;;;;;;;;;;28.36;37.53;94362.69;5002025;28;9085;-60
2022/08/29 03:34:45;;;;;;;;;;;;;;;28.35;37.69;94355.63;4987139;28;7067;-60
2022/08/29 03:37:26;;;;;;;;;;;;;;;28.36;37.76;94359.91;4983734;28;6986;-60
2022/08/29 03:40:03;;;;;;;;;;;;;;;28.33;37.75;94358.94;5002827;28;8284;-60
2022/08/29 03:42:32;;;;;;;;;;;;;;;28.34;37.89;94362.44;5000163;28;9098;-61
2022/08/29 03:45:12;;;;;;;;;;;;;;;28.33;37.96;94358.94;5001404;28;9359;-60
2022/08/29 03:47:42;;;;;;;;;;;;;;;28.33;37.83;94355.44;4978381;28;7267;-60
2022/08/29 03:50:10;;;;;;;;;;;;;;;28.32;37.89;94368.50;4980735;28;7218;-60
2022/08/29 03:52:36;;;;;;;;;;;;;;;28.32;38.28;94362.22;4971703;28;7315;-60
2022/08/29 03:55:05;;;;;;;;;;;;;;;28.33;38.31;94372.03;4968140;28;7156;-60
2022/08/29 03:57:44;;;;;;;;;;;;;;;28.33;37.97;94366.50;4996104;28;7243;-60
2022/08/29 04:00:21;;;;;;;;;;;;;;;28.34;38.20;94365.19;5002967;28;7527;-60
2022/08/29 04:03:19;;;;;;;;;;;;;;;28.33;38.39;94370.00;4990401;28;9146;-60
2022/08/29 04:05:54;;;;;;;;;;;;;;;28.34;38.13;94362.44;4934843;28;7265;-60
2022/08/29 04:08:36;;;;;;;;;;;;;;;28.34;38.37;94354.13;4933490;28;7205;-60
2022/08/29 04:11:14;;;;;;;;;;;;;;;28.34;38.52;94359.66;4956930;28;8059;-60
2022/08/29 04:13:50;;;;;;;;;;;;;;;28.34;38.42;94356.91;4954191;28;7220;-60
2022/08/29 04:16:37;;;;;;;;;;;;;;;28.34;38.48;94362.44;4933983;29;9527;-60
2022/08/29 04:19:23;;;;;;;;;;;;;;;28.33;38.63;94352.66;4937628;28;7218;-60
2022/08/29 04:22:34;;;;;;;;;;;;;;;28.32;38.85;94368.50;4951238;28;7090;-60
2022/08/29 04:25:06;;;;;;;;;;;;;;;28.31;38.15;94367.03;4949588;28;7250;-60
2022/08/29 04:27:36;;;;;;;;;;;;;;;28.31;38.90;94369.03;4949839;29;9432;-60
2022/08/29 04:30:08;;;;;;;;;;;;;;;28.33;38.68;94370.00;4947182;28;7409;-60
2022/08/29 04:32:46;;;;;;;;;;;;;;;28.34;38.82;94376.25;4936929;29;8918;-60
2022/08/29 04:35:13;;;;;;;;;;;;;;;28.32;39.01;94378.81;4949311;28;7197;-60
2022/08/29 04:37:43;;;;;;;;;;;;;;;28.34;38.90;94379.03;4950839;28;7300;-60
2022/08/29 04:40:14;;;;;;;;;;;;;;;28.35;38.95;94377.78;4951924;28;7238;-60
2022/08/29 04:43:02;;;;;;;;;;;;;;;28.34;38.59;94381.78;4949863;28;7182;-60
2022/08/29 04:45:56;;;;;;;;;;;;;;;28.34;38.84;94387.31;4957183;28;9422;-60
2022/08/29 04:48:49;;;;;;;;;;;;;;;28.35;39.01;94380.53;4969770;28;7149;-60
2022/08/29 04:51:18;;;;;;;;;;;;;;;28.33;38.99;94386.59;4941333;28;7361;-60
2022/08/29 04:53:44;;;;;;;;;;;;;;;28.33;39.07;94397.66;4951932;28;7775;-60
2022/08/29 04:56:13;;;;;;;;;;;;;;;28.33;38.84;94397.66;4951534;28;7742;-60
2022/08/29 04:58:42;;;;;;;;;;;;;;;28.34;39.21;94390.84;4955169;28;9420;-60
2022/08/29 05:01:14;;;;;;;;;;;;;;;28.34;38.77;94398.41;4977306;28;7693;-60
2022/08/29 05:03:48;;;;;;;;;;;;;;;28.33;39.20;94400.44;4993325;28;7304;-60
2022/08/29 05:06:20;;;;;;;;;;;;;;;28.33;39.32;94405.97;4989465;28;8876;-60
2022/08/29 05:08:51;;;;;;;;;;;;;;;28.34;40.07;94409.47;4993519;28;7251;-61
2022/08/29 05:11:19;;;;;;;;;;;;;;;28.32;40.58;94415.53;4994131;28;7625;-60
2022/08/29 05:13:53;;;;;;;;;;;;;;;28.31;40.16;94410.53;5010356;28;7293;-61
2022/08/29 05:16:23;;;;;;;;;;;;;;;28.33;40.45;94414.28;5008413;28;7621;-61
2022/08/29 05:18:59;;;;;;;;;;;;;;;28.35;40.39;94413.72;5010612;28;7530;-61
2022/08/29 05:21:40;;;;;;;;;;;;;;;28.35;40.31;94419.25;5011919;28;7339;-61
2022/08/29 05:24:44;;;;;;;;;;;;;;;28.35;40.11;94417.25;4991121;28;9391;-61
2022/08/29 05:27:19;;;;;;;;;;;;;;;28.34;40.03;94415.75;4985101;28;6990;-61
2022/08/29 05:29:58;;;;;;;;;;;;;;;28.33;39.96;94425.34;5002075;28;8891;-60
2022/08/29 05:32:43;;;;;;;;;;;;;;;28.31;39.76;94418.84;4989978;28;9699;-61
2022/08/29 05:35:11;;;;;;;;;;;;;;;28.33;39.72;94424.59;4977589;28;7505;-61
2022/08/29 05:37:56;;;;;;;;;;;;;;;28.32;39.51;94428.59;4997073;28;7311;-60
2022/08/29 05:40:37;;;;;;;;;;;;;;;28.31;39.78;94429.91;4992631;28;7212;-61
2022/08/29 05:43:05;;;;;;;;;;;;;;;28.32;39.68;94436.91;4988869;28;7345;-60
2022/08/29 05:45:46;;;;;;;;;;;;;;;28.32;39.99;94456.28;4993784;28;8835;-61
2022/08/29 05:48:19;;;;;;;;;;;;;;;28.34;39.28;94448.94;4992189;28;7245;-61
2022/08/29 05:50:45;;;;;;;;;;;;;;;28.36;39.81;94440.84;5009750;28;6988;-61
2022/08/29 05:53:15;;;;;;;;;;;;;;;28.38;39.65;94442.38;5011057;28;6988;-61
2022/08/29 05:55:42;;;;;;;;;;;;;;;28.40;39.49;94451.63;4993466;28;8124;-61
2022/08/29 05:58:14;;;;;;;;;;;;;;;28.41;39.92;94455.88;4990607;28;7279;-60
2022/08/29 06:00:46;;;;;;;;;;;;;;;28.42;39.56;94453.88;4993591;28;7306;-61
2022/08/29 06:03:26;;;;;;;;;;;;;;;28.41;39.28;94447.56;4991421;28;9348;-60
2022/08/29 06:05:57;;;;;;;;;;;;;;;28.38;39.69;94454.19;5007315;28;7128;-60
2022/08/29 06:08:24;;;;;;;;;;;;;;;28.40;39.28;94459.94;5011924;28;10244;-61
2022/08/29 06:10:52;;;;;;;;;;;;;;;28.41;39.84;94460.66;4991895;28;9932;-61
2022/08/29 06:13:24;;;;;;;;;;;;;;;28.40;39.69;94461.94;5005887;28;7469;-61
2022/08/29 06:15:57;;;;;;;;;;;;;;;28.40;40.24;94464.72;4993394;28;7388;-61
2022/08/29 06:18:24;;;;;;;;;;;;;;;28.42;39.32;94476.00;4994434;28;7287;-61
2022/08/29 06:20:56;;;;;;;;;;;;;;;28.45;39.31;94469.41;4984855;28;7562;-61
2022/08/29 06:23:28;;;;;;;;;;;;;;;28.44;39.68;94467.91;4988845;28;7082;-61
2022/08/29 06:25:57;;;;;;;;;;;;;;;28.45;39.65;94458.34;4995683;28;7209;-61
2022/08/29 06:28:35;;;;;;;;;;;;;;;28.44;39.67;94471.44;4986919;28;7380;-61
2022/08/29 06:31:39;;;;;;;;;;;;;;;28.42;39.85;94467.69;4988306;28;7225;-60
2022/08/29 06:34:09;;;;;;;;;;;;;;;28.38;40.02;94462.47;4943677;28;7230;-60
2022/08/29 06:36:37;;;;;;;;;;;;;;;28.39;39.39;94461.19;4937995;28;7691;-60
2022/08/29 06:39:28;;;;;;;;;;;;;;;28.41;40.04;94458.66;4936578;28;7139;-60
2022/08/29 06:41:55;;;;;;;;;;;;;;;28.39;39.65;94455.66;4951004;28;9390;-60
2022/08/29 06:44:22;;;;;;;;;;;;;;;28.39;40.01;94463.97;4949893;28;7011;-61
2022/08/29 06:46:49;;;;;;;;;;;;;;;28.36;40.20;94465.03;4940865;28;7297;-60
2022/08/29 06:49:18;;;;;;;;;;;;;;;28.36;40.26;94463.00;4926612;28;7277;-60
2022/08/29 06:51:51;;;;;;;;;;;;;;;28.36;40.10;94463.00;4935094;28;10738;-60
2022/08/29 06:54:21;;;;;;;;;;;;;;;28.37;39.78;94460.97;4945615;28;7291;-60
2022/08/29 06:56:50;;;;;;;;;;;;;;;28.37;40.43;94463.75;4937505;28;7241;-60
2022/08/29 06:59:31;;;;;;;;;;;;;;;28.37;39.88;94460.97;4932823;28;7619;-60
2022/08/29 07:02:06;;;;;;;;;;;;;;;28.38;40.34;94470.78;4937514;28;7239;-61
2022/08/29 07:04:40;;;;;;;;;;;;;;;28.40;40.44;94468.22;4950140;28;7165;-61
2022/08/29 07:07:18;;;;;;;;;;;;;;;28.40;40.39;94465.47;4937401;28;7241;-60
2022/08/29 07:09:45;;;;;;;;;;;;;;;28.41;40.40;94460.66;4989149;28;7678;-60
2022/08/29 07:12:30;;;;;;;;;;;;;;;28.42;40.16;94462.16;4988117;28;7004;-60
2022/08/29 07:15:03;;;;;;;;;;;;;;;28.40;40.49;94464.72;5007168;28;7211;-60
2022/08/29 07:17:29;;;;;;;;;;;;;;;28.42;40.23;94462.16;4992417;28;7758;-60
2022/08/29 07:19:57;;;;;;;;;;;;;;;28.43;39.98;94461.63;4996519;28;7154;-60
2022/08/29 07:22:26;;;;;;;;;;;;;;;28.45;40.31;94469.41;5003023;28;7485;-60
2022/08/29 07:25:02;;;;;;;;;;;;;;;28.42;40.22;94464.94;4988625;28;9417;-61
2022/08/29 07:27:38;;;;;;;;;;;;;;;28.44;40.00;94473.44;4987306;28;7209;-60
2022/08/29 07:30:24;;;;;;;;;;;;;;;28.45;40.27;94480.47;4999363;28;7177;-60
2022/08/29 07:33:02;;;;;;;;;;;;;;;28.39;41.04;94469.50;4989170;28;7335;-60
2022/08/29 07:35:28;;;;;;;;;;;;;;;28.45;40.21;94472.91;4992347;28;8387;-61
2022/08/29 07:38:02;;;;;;;;;;;;;;;28.44;40.12;94473.44;5005472;28;7003;-61
2022/08/29 07:40:29;;;;;;;;;;;;;;;28.45;40.25;94475.69;4986625;28;7091;-61
2022/08/29 07:42:59;;;;;;;;;;;;;;;28.47;40.80;94477.94;4989932;28;7199;-60
2022/08/29 07:45:29;;;;;;;;;;;;;;;28.45;40.71;94486.03;5000995;28;7322;-60
2022/08/29 07:47:55;;;;;;;;;;;;;;;28.43;40.53;94485.81;5000930;28;7225;-61
2022/08/29 07:50:23;;;;;;;;;;;;;;;28.41;40.82;94485.56;5007653;28;7268;-61
2022/08/29 07:52:49;;;;;;;;;;;;;;;28.39;40.48;94477.78;5006970;28;9302;-60
2022/08/29 07:55:17;;;;;;;;;;;;;;;28.40;40.85;94478.53;5002920;28;6999;-60
2022/08/29 07:57:45;;;;;;;;;;;;;;;28.40;40.50;94479.31;5006022;28;7254;-60
2022/08/29 08:00:12;;;;;;;;;;;;;;;28.40;40.86;94476.53;5000459;28;10020;-61
2022/08/29 08:02:53;;;;;;;;;;;;;;;28.40;41.09;94473.00;5008996;28;7319;-61
2022/08/29 08:05:27;;;;;;;;;;;;;;;28.39;41.10;94480.56;5004264;28;7171;-61
2022/08/29 08:07:57;;;;;;;;;;;;;;;28.40;41.13;94484.06;5009840;28;8426;-60
2022/08/29 08:10:31;;;;;;;;;;;;;;;28.40;40.78;94484.06;5005760;28;7179;-61
2022/08/29 08:12:57;;;;;;;;;;;;;;;28.40;41.17;94490.38;4993991;28;7300;-61
2022/08/29 08:15:23;;;;;;;;;;;;;;;28.38;40.58;94495.69;4989141;28;7066;-61
2022/08/29 08:18:06;;;;;;;;;;;;;;;28.40;41.28;94495.91;4992961;28;8031;-61
2022/08/29 08:20:39;;;;;;;;;;;;;;;28.42;40.98;94500.91;4993832;28;7031;-61
2022/08/29 08:23:07;;;;;;;;;;;;;;;28.38;41.23;94492.91;4990700;28;7316;-61
2022/08/29 08:25:37;;;;;;;;;;;;;;;28.41;40.99;94496.63;4980229;28;7036;-61
2022/08/29 08:28:08;;;;;;;;;;;;;;;28.44;41.20;94495.56;4998008;28;7071;-61
2022/08/29 08:30:40;;;;;;;;;;;;;;;28.45;41.15;94492.28;5007093;28;7222;-61
2022/08/29 08:33:12;;;;;;;;;;;;;;;28.47;40.75;94495.25;4987582;28;9608;-60
2022/08/29 08:35:42;;;;;;;;;;;;;;;28.47;41.22;94497.31;4994213;28;7302;-61
2022/08/29 08:38:26;;;;;;;;;;;;;;;28.47;41.11;94506.31;4994134;28;7131;-61
2022/08/29 08:41:40;;;;;;;;;;;;;;;28.47;41.34;94506.31;4996215;28;7179;-61
2022/08/29 08:44:34;;;;;;;;;;;;;;;28.47;41.25;94500.78;4989962;28;9847;-61
2022/08/29 08:47:39;;;;;;;;;;;;;;;28.47;41.13;94505.59;4974217;28;9098;-61
2022/08/29 08:50:11;;;;;;;;;;;;;;;28.46;41.02;94496.56;4952222;28;7014;-61
2022/08/29 08:52:50;;;;;;;;;;;;;;;28.47;41.18;94500.78;4953382;28;9367;-61
2022/08/29 08:55:54;;;;;;;;;;;;;;;28.49;41.33;94505.81;4951342;28;9299;-60
2022/08/29 08:58:59;;;;;;;;;;;;;;;28.49;41.04;94503.06;4939344;28;7424;-61
2022/08/29 09:01:42;;;;;;;;;;;;;;;28.48;41.40;94507.84;4952381;28;7000;-61
2022/08/29 09:04:47;;;;;;;;;;;;;;;28.48;41.24;94501.53;4952740;28;7001;-61
2022/08/29 09:07:55;;;;;;;;;;;;;;;28.49;40.89;94494.75;4921806;29;7021;-61
2022/08/29 09:10:51;;;;;;;;;;;;;;;28.51;41.16;94492.22;4923919;29;7187;-61
2022/08/29 09:13:57;;;;;;;;;;;;;;;28.51;41.02;94504.03;4921464;29;7212;-61
2022/08/29 09:16:39;;;;;;;;;;;;;;;28.52;41.11;94493.69;4921510;29;7339;-60
2022/08/29 09:19:08;;;;;;;;;;;;;;;28.53;41.35;94498.72;4902616;29;7011;-61
2022/08/29 09:22:14;;;;;;;;;;;;;;;28.54;41.07;94493.91;4917125;29;9468;-61
2022/08/29 09:24:49;;;;;;;;;;;;;;;28.55;41.16;94495.41;4873315;29;7176;-60
2022/08/29 09:27:24;;;;;;;;;;;;;;;28.55;41.09;94500.94;4912894;29;7484;-60
2022/08/29 09:30:02;;;;;;;;;;;;;;;28.53;41.17;94497.94;4916879;29;6955;-60
2022/08/29 09:32:28;;;;;;;;;;;;;;;28.54;41.53;94488.38;4895398;29;9050;-60
2022/08/29 09:35:01;;;;;;;;;;;;;;;28.54;41.25;94499.44;4909837;29;7673;-60
2022/08/29 09:38:00;;;;;;;;;;;;;;;28.54;41.36;94497.41;4910154;29;11056;-61
2022/08/29 09:40:42;;;;;;;;;;;;;;;28.55;41.61;94498.94;4865405;29;7237;-60
2022/08/29 09:43:38;;;;;;;;;;;;;;;28.57;41.48;94496.41;4864236;29;7137;-61
2022/08/29 09:46:21;;;;;;;;;;;;;;;28.57;41.56;94501.94;4865606;29;8466;-61
2022/08/29 09:48:58;;;;;;;;;;;;;;;28.56;41.71;94503.16;4848415;29;7368;-61
2022/08/29 09:51:27;;;;;;;;;;;;;;;28.58;41.18;94508.22;4865178;29;7300;-60
2022/08/29 09:54:30;;;;;;;;;;;;;;;28.59;41.24;94504.91;4863723;29;7365;-61
2022/08/29 09:57:09;;;;;;;;;;;;;;;28.59;41.71;94507.69;4848335;29;6921;-60
2022/08/29 10:00:15;;;;;;;;;;;;;;;28.61;41.77;94505.13;4850696;29;7224;-60
2022/08/29 10:02:57;;;;;;;;;;;;;;;28.60;41.50;94498.09;4876920;29;7068;-61
2022/08/29 10:05:27;;;;;;;;;;;;;;;28.62;41.62;94494.81;4876693;29;7513;-61
2022/08/29 10:08:33;;;;;;;;;;;;;;;28.63;41.72;94497.06;4877762;29;7025;-61
2022/08/29 10:11:35;;;;;;;;;;;;;;;28.63;41.10;94502.59;4840639;29;7165;-61
2022/08/29 10:14:37;;;;;;;;;;;;;;;28.67;41.33;94497.47;4857645;29;7303;-59
2022/08/29 10:21:15;;;;;;;;;;;;;;;28.70;41.34;94496.44;4823710;29;7326;-60
2022/08/29 10:24:11;;;;;;;;;;;;;;;28.71;41.02;94500.69;4822426;29;7330;-61
2022/08/29 10:27:22;;;;;;;;;;;;;;;28.73;41.34;94506.44;4837804;29;6948;-61
2022/08/29 10:30:08;;;;;;;;;;;;;;;28.75;41.52;94505.94;4821566;29;7262;-61
2022/08/29 10:32:47;;;;;;;;;;;;;;;28.77;40.95;94497.84;4821871;29;7642;-61
2022/08/29 10:35:42;;;;;;;;;;;;;;;28.77;40.83;94504.13;4821368;29;7258;-60
2022/08/29 10:38:21;;;;;;;;;;;;;;;28.77;41.46;94509.66;4856311;29;7326;-60
2022/08/29 10:40:55;;;;;;;;;;;;;;;28.78;41.09;94505.59;4846084;29;8907;-60
2022/08/29 10:43:56;;;;;;;;;;;;;;;28.78;41.40;94502.84;4828059;29;7473;-60
2022/08/29 10:47:29;;;;;;;;;;;;;;;28.81;41.60;94493.47;4803246;29;7850;-60
2022/08/29 10:50:09;;;;;;;;;;;;;;;28.81;41.22;94499.00;4778476;29;7582;-60
2022/08/29 10:52:44;;;;;;;;;;;;;;;28.83;41.49;94492.94;4867746;29;8437;-60
2022/08/29 10:55:12;;;;;;;;;;;;;;;28.82;41.25;94489.41;4912515;29;7496;-60
2022/08/29 10:58:17;;;;;;;;;;;;;;;28.84;41.97;94488.91;4896984;29;7437;-61
2022/08/29 11:01:33;;;;;;;;;;;;;;;28.84;41.51;94499.97;4907011;29;9171;-60
2022/08/29 11:04:06;;;;;;;;;;;;;;;28.84;42.02;94495.16;4815862;29;7191;-61
2022/08/29 11:06:57;;;;;;;;;;;;;;;28.81;42.53;94498.25;4818665;29;7243;-61
2022/08/29 11:10:06;;;;;;;;;;;;;;;28.83;42.09;94498.47;4817395;29;7269;-61
2022/08/29 11:13:02;;;;;;;;;;;;;;;28.86;41.78;94495.38;4795719;29;9357;-60
2022/08/29 11:15:58;;;;;;;;;;;;;;;28.87;42.09;94498.91;4787098;29;9550;-60
2022/08/29 11:18:30;;;;;;;;;;;;;;;28.87;41.78;94494.13;4800458;29;8344;-60
2022/08/29 11:21:40;;;;;;;;;;;;;;;28.88;41.75;94490.06;4795847;29;9585;-61
2022/08/29 11:24:10;;;;;;;;;;;;;;;28.89;41.98;94497.09;4846822;29;7240;-61
2022/08/29 11:26:44;;;;;;;;;;;;;;;28.90;42.00;94490.31;4858871;29;8279;-61
2022/08/29 11:29:44;;;;;;;;;;;;;;;28.91;41.97;94483.47;4857463;29;7170;-61
2022/08/29 11:32:27;;;;;;;;;;;;;;;28.93;41.85;94483.69;4843379;29;9319;-61
2022/08/29 11:35:05;;;;;;;;;;;;;;;28.94;41.97;94482.44;4857221;29;9431;-61
2022/08/29 11:38:07;;;;;;;;;;;;;;;28.96;42.00;94482.63;4869743;29;7245;-61
2022/08/29 11:40:49;;;;;;;;;;;;;;;28.97;41.46;94477.84;4910102;29;6996;-60
2022/08/29 11:43:47;;;;;;;;;;;;;;;28.98;42.08;94479.31;4927390;29;7223;-60
2022/08/29 11:46:50;;;;;;;;;;;;;;;28.99;41.62;94473.25;4915636;28;7823;-61
2022/08/29 11:49:37;;;;;;;;;;;;;;;29.00;41.96;94474.00;4946192;28;8699;-60
2022/08/29 11:52:09;;;;;;;;;;;;;;;29.00;41.76;94471.97;4950652;28;7268;-61
2022/08/29 11:54:35;;;;;;;;;;;;;;;28.99;41.72;94467.72;4951032;28;7271;-61
2022/08/29 11:57:02;;;;;;;;;;;;;;;29.01;41.95;94467.19;4953483;28;7106;-61
2022/08/29 11:59:50;;;;;;;;;;;;;;;29.01;42.04;94459.63;4951802;28;9678;-60
2022/08/29 12:02:31;;;;;;;;;;;;;;;29.04;41.77;94460.59;4943722;28;7404;-61
2022/08/29 12:05:10;;;;;;;;;;;;;;;29.07;42.09;94460.28;4951255;28;9584;-60
2022/08/29 12:08:06;;;;;;;;;;;;;;;29.09;41.93;94457.72;4951612;28;7076;-60
2022/08/29 12:10:57;;;;;;;;;;;;;;;29.09;41.26;94449.41;4951779;28;7239;-60
2022/08/29 12:14:07;;;;;;;;;;;;;;;29.12;41.99;94446.84;4952038;28;7617;-60
2022/08/29 12:16:52;;;;;;;;;;;;;;;29.14;41.55;94450.59;4952151;28;7523;-61
2022/08/29 12:19:49;;;;;;;;;;;;;;;29.13;41.53;94454.63;4950510;28;7177;-61
2022/08/29 12:23:08;;;;;;;;;;;;;;;29.17;41.37;94465.44;4958966;28;9407;-61
2022/08/29 12:25:48;;;;;;;;;;;;;;;29.17;41.98;94460.59;4982978;28;6865;-61
2022/08/29 12:28:22;;;;;;;;;;;;;;;29.20;41.74;94458.81;4984924;28;7296;-60
2022/08/29 12:30:54;;;;;;;;;;;;;;;29.20;41.36;94464.34;5002348;28;7201;-60
2022/08/29 12:33:55;;;;;;;;;;;;;;;29.22;41.12;94456.25;5000963;28;6979;-60
2022/08/29 12:36:39;;;;;;;;;;;;;;;29.23;41.63;94454.97;4993991;28;8667;-61
2022/08/29 12:39:23;;;;;;;;;;;;;;;29.25;41.48;94455.94;4985664;28;7302;-61
2022/08/29 12:42:14;;;;;;;;;;;;;;;29.25;40.86;94444.84;4985499;28;7203;-60
2022/08/29 12:44:47;;;;;;;;;;;;;;;29.26;40.80;94440.03;4984236;28;7135;-60
2022/08/29 12:47:31;;;;;;;;;;;;;;;29.27;41.31;94444.31;4982459;28;8434;-60
2022/08/29 12:50:23;;;;;;;;;;;;;;;29.29;41.27;94445.28;4977870;28;7076;-61
2022/08/29 12:53:33;;;;;;;;;;;;;;;29.29;41.43;94441.75;4978081;28;7635;-60
2022/08/29 12:56:18;;;;;;;;;;;;;;;29.27;41.36;94431.22;5000428;28;7251;-60
2022/08/29 12:59:17;;;;;;;;;;;;;;;29.30;41.04;94435.66;5028077;28;8332;-60
2022/08/29 13:01:50;;;;;;;;;;;;;;;29.32;48.36;94432.38;4982380;28;7240;-60
2022/08/29 13:04:43;;;;;;;;;;;;;;;29.34;44.50;94435.38;4969445;28;6988;-60
2022/08/29 13:07:16;;;;;;;;;;;;;;;29.35;43.10;94432.06;4973741;28;8251;-60
2022/08/29 13:10:02;;;;;;;;;;;;;;;29.35;42.13;94425.75;4970092;28;9908;-60
2022/08/29 13:12:35;;;;;;;;;;;;;;;29.36;41.96;94424.50;4971310;28;8964;-60
2022/08/29 13:15:25;;;;;;;;;;;;;;;29.39;42.58;94426.91;4983908;28;7505;-60
2022/08/29 13:17:53;;;;;;;;;;;;;;;29.38;42.39;94422.69;4975559;28;7033;-60
2022/08/29 13:20:41;;;;;;;;;;;;;;;29.45;42.21;94418.50;4987755;28;6994;-60
2022/08/29 13:24:01;;;;;;;;;;;;;;;29.47;42.71;94421.50;4989496;28;8461;-60
2022/08/29 13:26:42;;;;;;;;;;;;;;;29.46;42.23;94419.97;4999453;28;6999;-61
2022/08/29 13:29:26;;;;;;;;;;;;;;;29.48;42.40;94422.97;4988143;28;7960;-60
2022/08/29 13:32:22;;;;;;;;;;;;;;;29.48;42.82;94420.94;4952980;28;7380;-60
2022/08/29 13:35:12;;;;;;;;;;;;;;;29.50;42.78;94421.16;4951716;28;7346;-60
2022/08/29 13:37:42;;;;;;;;;;;;;;;29.53;42.52;94419.34;4974514;28;7276;-60
2022/08/29 13:40:31;;;;;;;;;;;;;;;29.55;42.37;94416.78;5005289;28;7394;-60
2022/08/29 13:43:05;;;;;;;;;;;;;;;29.54;42.47;94415.28;5007432;28;8372;-60
2022/08/29 13:45:43;;;;;;;;;;;;;;;29.59;42.68;94422.72;4977918;28;7330;-60
2022/08/29 13:48:19;;;;;;;;;;;;;;;29.60;42.78;94424.97;5007338;28;7501;-59
2022/08/29 13:50:56;;;;;;;;;;;;;;;29.61;42.38;94411.84;5009797;28;9599;-60
2022/08/29 13:53:22;;;;;;;;;;;;;;;29.64;42.89;94413.56;4979527;28;7321;-60
2022/08/29 13:55:48;;;;;;;;;;;;;;;29.64;42.63;94408.75;4999556;28;9158;-59
2022/08/29 13:58:25;;;;;;;;;;;;;;;29.68;42.27;94411.19;4986225;28;7285;-60
2022/08/29 14:00:57;;;;;;;;;;;;;;;29.68;42.32;94408.41;4989830;28;7175;-60
2022/08/29 14:03:32;;;;;;;;;;;;;;;29.69;42.80;94409.91;5006143;28;9711;-60
2022/08/29 14:06:00;;;;;;;;;;;;;;;29.69;41.78;94405.09;4985133;28;7959;-60